Preview of NWS' New Version of Forecast
This preview is not operational and should not be used for support decisions.

Terminal Aerodrome Forecast (TAF)

Issued by National Weather Service (NWS)

                            
000
FTUS43 KDMX 190520
TAFALO
TAF
KALO 190520Z 1906/2006 VRB03KT P6SM FEW250
     FM191600 14005KT P6SM FEW040=